Time;durP1;ratioP1;P1;durP2;ratioP2;P2;SDS_P1;SDS_P2;PMS_P1;PMS_P2;Temp;Humidity;BMP_temperature;BMP_pressure;BME280_temperature;BME280_humidity;BME280_pressure;Samples;Min_cycle;Max_cycle;Signal;HPM_P1;HPM_P2
2022/04/14 00:01:27;;;;;;;15.67;7.47;;;;;;;37.88;44.49;100825.81;6184235;23;20822;-74
2022/04/14 00:03:53;;;;;;;15.40;6.43;;;;;;;37.82;45.01;100821.63;6157706;23;20478;-74
2022/04/14 00:06:19;;;;;;;15.47;5.70;;;;;;;37.61;45.04;100826.66;6157792;23;20388;-74
2022/04/14 00:08:45;;;;;;;20.57;7.07;;;;;;;37.71;45.05;100821.03;6157387;23;20427;-75
2022/04/14 00:11:11;;;;;;;22.37;7.13;;;;;;;37.83;45.13;100812.41;6133341;23;20379;-76
2022/04/14 00:13:37;;;;;;;14.90;6.93;;;;;;;37.83;44.45;100807.78;6157444;23;20409;-76
2022/04/14 00:16:04;;;;;;;21.73;8.33;;;;;;;37.94;44.71;100808.34;6157359;23;20388;-76
2022/04/14 00:18:30;;;;;;;16.10;6.77;;;;;;;37.82;44.46;100808.09;6157652;23;20427;-76
2022/04/14 00:20:56;;;;;;;20.67;7.60;;;;;;;37.77;44.72;100800.84;6183933;23;20361;-73
2022/04/14 00:23:22;;;;;;;13.23;6.27;;;;;;;37.71;44.70;100791.25;6158034;23;20357;-76
2022/04/14 00:25:48;;;;;;;23.53;6.77;;;;;;;37.50;45.38;100787.38;6157642;23;20384;-73
2022/04/14 00:28:14;;;;;;;20.80;6.10;;;;;;;37.62;45.11;100780.34;6157439;23;20454;-76
2022/04/14 00:30:41;;;;;;;22.20;6.70;;;;;;;37.74;45.04;100776.28;6157693;23;20856;-74
2022/04/14 00:33:07;;;;;;;22.70;6.57;;;;;;;37.84;44.89;100776.09;6157469;23;20802;-73
2022/04/14 00:35:33;;;;;;;30.83;6.47;;;;;;;37.86;44.29;100768.44;6157546;23;20442;-74
2022/04/14 00:37:59;;;;;;;11.13;5.50;;;;;;;37.79;44.61;100758.03;6157206;23;20380;-75
2022/04/14 00:40:25;;;;;;;14.20;6.33;;;;;;;37.88;44.57;100755.41;6157488;23;20464;-74
2022/04/14 00:42:51;;;;;;;17.67;6.50;;;;;;;37.86;44.44;100761.13;6157267;23;20391;-76
2022/04/14 00:45:17;;;;;;;16.10;7.60;;;;;;;37.90;44.23;100755.91;6157229;23;20463;-76
2022/04/14 00:47:44;;;;;;;13.40;5.63;;;;;;;37.23;45.40;100758.47;6157450;23;20766;-74
2022/04/14 00:50:10;;;;;;;15.40;7.80;;;;;;;37.43;45.32;100755.34;6132821;23;20802;-74
2022/04/14 00:52:45;;;;;;;16.53;9.60;;;;;;;37.32;46.18;100759.34;6183927;23;20352;-74
2022/04/14 00:55:11;;;;;;;16.17;6.83;;;;;;;37.44;45.46;100750.72;6157553;23;20383;-77
2022/04/14 00:57:37;;;;;;;14.23;5.43;;;;;;;37.45;45.31;100752.34;6157448;23;20375;-74
2022/04/14 01:00:05;;;;;;;20.23;8.17;;;;;;;37.43;45.24;100744.50;6133110;23;20381;-74
2022/04/14 01:02:31;;;;;;;10.53;5.97;;;;;;;37.51;44.92;100751.94;6157432;23;20382;-74
2022/04/14 01:04:59;;;;;;;19.33;7.63;;;;;;;37.62;45.05;100753.25;6157368;23;20385;-74
2022/04/14 01:07:25;;;;;;;16.90;7.07;;;;;;;37.69;44.23;100760.16;6157380;23;20420;-74
2022/04/14 01:09:53;;;;;;;11.50;6.13;;;;;;;37.70;44.34;100759.06;6157365;23;20389;-74
2022/04/14 01:12:19;;;;;;;16.93;6.97;;;;;;;37.80;44.45;100759.66;6157451;23;20458;-74
2022/04/14 01:14:45;;;;;;;13.53;5.67;;;;;;;37.55;44.84;100750.19;6157402;23;20450;-74
2022/04/14 01:17:12;;;;;;;17.77;8.00;;;;;;;37.72;44.80;100749.53;6183648;23;20424;-74
2022/04/14 01:19:38;;;;;;;11.03;7.10;;;;;;;37.71;44.52;100749.84;6157667;23;20442;-76
2022/04/14 01:22:12;;;;;;;17.73;7.80;;;;;;;37.32;45.17;100753.94;6157310;23;20884;-74
2022/04/14 01:24:40;;;;;;;16.43;6.93;;;;;;;37.32;45.41;100743.94;6158532;23;20408;-76
2022/04/14 01:27:06;;;;;;;18.77;6.43;;;;;;;37.34;46.03;100747.16;6159172;23;20491;-73
2022/04/14 01:29:32;;;;;;;16.13;8.70;;;;;;;37.34;45.60;100743.66;6158939;23;20825;-77
2022/04/14 01:32:01;;;;;;;17.70;6.27;;;;;;;37.52;45.74;100750.03;6185473;23;20396;-74
2022/04/14 01:34:30;;;;;;;14.00;7.70;;;;;;;37.42;45.94;100753.75;6159100;23;20837;-73
2022/04/14 01:37:00;;;;;;;20.10;8.33;;;;;;;37.23;45.83;100755.78;6185635;23;20361;-75
2022/04/14 01:39:30;;;;;;;12.80;6.60;;;;;;;37.46;45.50;100759.34;6158824;23;20907;-74
2022/04/14 01:41:56;;;;;;;18.10;8.40;;;;;;;37.65;44.65;100747.25;6159136;23;20476;-76
2022/04/14 01:44:22;;;;;;;12.07;6.03;;;;;;;37.85;44.90;100745.19;6158882;23;20797;-75
2022/04/14 01:46:48;;;;;;;16.37;6.13;;;;;;;37.77;44.49;100743.19;6158771;23;20436;-74
2022/04/14 01:49:14;;;;;;;25.13;7.17;;;;;;;37.91;44.32;100743.97;6158720;23;20478;-76
2022/04/14 01:51:40;;;;;;;15.37;6.70;;;;;;;37.78;44.48;100742.09;6158747;23;20388;-75
2022/04/14 01:54:07;;;;;;;19.30;8.13;;;;;;;37.85;44.08;100732.44;6158745;23;20388;-74
2022/04/14 01:56:33;;;;;;;11.83;6.53;;;;;;;37.90;44.36;100739.66;6158727;23;20664;-73
2022/04/14 01:58:59;;;;;;;21.37;7.17;;;;;;;37.98;43.98;100735.41;6158935;23;20846;-74
2022/04/14 02:01:26;;;;;;;17.77;8.20;;;;;;;37.96;44.56;100737.63;6158891;23;20420;-77
2022/04/14 02:03:52;;;;;;;23.13;7.37;;;;;;;37.85;44.42;100737.06;6158455;23;20483;-74
2022/04/14 02:06:18;;;;;;;18.40;7.37;;;;;;;37.93;44.25;100741.72;6185301;23;20368;-74
2022/04/14 02:08:44;;;;;;;10.37;5.50;;;;;;;37.74;44.96;100733.78;6184991;23;20491;-73
2022/04/14 02:11:11;;;;;;;23.43;8.20;;;;;;;37.63;44.72;100727.03;6158906;23;20403;-76
2022/04/14 02:13:37;;;;;;;15.60;5.83;;;;;;;37.77;44.95;100732.38;6158534;23;20435;-74
2022/04/14 02:16:04;;;;;;;13.33;6.47;;;;;;;37.95;44.39;100728.69;6158627;23;20404;-74
2022/04/14 02:18:30;;;;;;;16.17;7.07;;;;;;;38.06;44.18;100726.50;6184888;23;20408;-74
2022/04/14 02:20:56;;;;;;;11.27;6.10;;;;;;;38.01;44.46;100719.34;6158600;23;20411;-74
2022/04/14 02:23:23;;;;;;;18.07;9.20;;;;;;;37.78;45.30;100715.81;6158668;23;20399;-74
2022/04/14 02:25:50;;;;;;;12.77;7.77;;;;;;;37.84;44.94;100711.09;6158519;23;20467;-74
2022/04/14 02:28:16;;;;;;;18.90;9.90;;;;;;;37.79;44.99;100708.50;6158265;23;20458;-74
2022/04/14 02:30:42;;;;;;;20.53;9.00;;;;;;;37.56;45.63;100700.38;6158621;23;20392;-72
2022/04/14 02:33:09;;;;;;;15.63;8.50;;;;;;;37.53;46.08;100689.38;6158688;23;20443;-76
2022/04/14 02:35:35;;;;;;;12.80;8.97;;;;;;;37.10;46.89;100697.91;6157918;23;20861;-74
2022/04/14 02:38:01;;;;;;;14.93;7.90;;;;;;;37.42;46.27;100696.13;6158537;23;20462;-76
2022/04/14 02:40:27;;;;;;;21.10;8.90;;;;;;;37.32;46.10;100695.25;6158488;23;20389;-74
2022/04/14 02:42:54;;;;;;;23.33;9.83;;;;;;;37.33;46.33;100685.22;6158377;23;20388;-73
2022/04/14 02:45:27;;;;;;;22.73;11.97;;;;;;;37.49;46.17;100688.38;6158039;23;20408;-76
2022/04/14 02:47:54;;;;;;;17.10;9.83;;;;;;;37.22;46.22;100686.56;6128785;23;20437;-76
2022/04/14 02:50:21;;;;;;;20.27;12.27;;;;;;;37.33;46.11;100679.81;6128886;23;20892;-74
2022/04/14 02:52:48;;;;;;;22.27;12.07;;;;;;;37.24;46.74;100684.31;6128865;23;20831;-76
2022/04/14 02:55:16;;;;;;;19.77;11.93;;;;;;;37.13;46.76;100679.13;6128687;23;20381;-74
2022/04/14 02:57:42;;;;;;;19.17;12.80;;;;;;;37.05;47.32;100679.88;6128933;23;20378;-75
2022/04/14 03:00:09;;;;;;;27.23;13.50;;;;;;;37.30;46.01;100677.69;6128155;23;20381;-76
2022/04/14 03:02:36;;;;;;;21.93;12.40;;;;;;;37.40;46.28;100685.63;6128817;23;20456;-74
2022/04/14 03:05:04;;;;;;;19.87;12.90;;;;;;;37.07;46.65;100683.06;6128737;23;20378;-76
2022/04/14 03:07:30;;;;;;;29.50;15.10;;;;;;;37.02;46.98;100683.19;6128751;23;20870;-74
2022/04/14 03:09:56;;;;;;;30.10;13.23;;;;;;;37.10;46.43;100687.88;6153067;23;20952;-74
2022/04/14 03:12:22;;;;;;;20.97;13.33;;;;;;;37.04;47.00;100686.38;6129161;23;20381;-74
2022/04/14 03:14:49;;;;;;;18.13;11.87;;;;;;;37.04;47.00;100680.19;6154984;23;20440;-73
2022/04/14 03:17:16;;;;;;;22.40;14.40;;;;;;;37.16;46.80;100685.06;6128230;23;20508;-75
2022/04/14 03:19:42;;;;;;;21.23;12.00;;;;;;;37.24;46.80;100682.41;6128561;23;20468;-75
2022/04/14 03:22:08;;;;;;;21.70;12.97;;;;;;;37.25;46.74;100685.94;6128456;23;20435;-73
2022/04/14 03:24:35;;;;;;;20.43;12.80;;;;;;;37.25;46.37;100680.50;6153224;23;20443;-77
2022/04/14 03:27:01;;;;;;;26.83;13.10;;;;;;;37.18;47.01;100683.66;6128494;23;20853;-74
2022/04/14 03:29:32;;;;;;;19.30;12.20;;;;;;;37.17;46.72;100681.25;6128265;23;20468;-74
2022/04/14 03:31:59;;;;;;;31.63;12.87;;;;;;;37.23;46.52;100675.41;6128565;23;20524;-76
2022/04/14 03:34:25;;;;;;;18.93;12.37;;;;;;;37.07;47.15;100683.06;6128487;23;20488;-76
2022/04/14 03:36:51;;;;;;;21.50;13.57;;;;;;;37.04;47.14;100678.28;6128379;23;20413;-76
2022/04/14 03:39:17;;;;;;;25.90;16.70;;;;;;;37.05;47.08;100674.47;6153144;23;20381;-74
2022/04/14 03:41:43;;;;;;;25.33;13.37;;;;;;;37.02;47.34;100675.09;6128386;23;20393;-74
2022/04/14 03:44:09;;;;;;;17.53;13.20;;;;;;;37.01;46.82;100672.66;6128212;23;20483;-74
2022/04/14 03:46:35;;;;;;;23.27;12.73;;;;;;;37.06;46.48;100673.34;6141892;23;20467;-76
2022/04/14 03:49:01;;;;;;;20.53;13.53;;;;;;;36.83;47.12;100668.97;6157726;23;20784;-73
2022/04/14 03:51:28;;;;;;;20.00;14.07;;;;;;;36.91;47.20;100668.31;6157715;23;20434;-73
2022/04/14 03:53:54;;;;;;;26.33;13.73;;;;;;;37.00;46.89;100671.06;6157759;23;20507;-73
2022/04/14 03:56:20;;;;;;;27.90;14.80;;;;;;;36.86;47.12;100671.88;6157681;23;20416;-74
2022/04/14 03:58:46;;;;;;;22.60;12.87;;;;;;;37.02;46.80;100672.38;6157680;23;20447;-74
2022/04/14 04:01:12;;;;;;;28.33;13.57;;;;;;;36.93;47.27;100674.19;6157800;23;20396;-74
2022/04/14 04:03:38;;;;;;;19.77;12.90;;;;;;;37.04;46.92;100670.16;6184064;23;20395;-74
2022/04/14 04:06:04;;;;;;;26.30;12.20;;;;;;;36.95;47.46;100676.59;6157568;23;20400;-74
2022/04/14 04:08:30;;;;;;;25.17;13.00;;;;;;;36.86;47.24;100682.69;6157731;23;20428;-74
2022/04/14 04:10:56;;;;;;;20.97;14.13;;;;;;;36.93;47.45;100684.22;6183909;23;20356;-75
2022/04/14 04:13:22;;;;;;;35.93;12.73;;;;;;;37.00;46.76;100681.88;6184177;23;20367;-74
2022/04/14 04:15:48;;;;;;;20.77;13.97;;;;;;;37.10;47.16;100679.75;6157639;23;20403;-75
2022/04/14 04:18:14;;;;;;;24.37;14.37;;;;;;;37.19;46.86;100687.16;6183852;23;20959;-75
2022/04/14 04:20:40;;;;;;;28.50;15.73;;;;;;;37.22;46.58;100691.97;6157637;23;20415;-73
2022/04/14 04:23:06;;;;;;;16.87;13.30;;;;;;;37.22;46.55;100687.34;6157476;23;20438;-73
2022/04/14 04:25:33;;;;;;;22.20;12.10;;;;;;;37.21;46.53;100687.66;6157595;23;20381;-74
2022/04/14 04:27:59;;;;;;;24.97;13.10;;;;;;;37.22;46.33;100678.44;6157508;23;20428;-74
2022/04/14 04:30:25;;;;;;;18.07;13.97;;;;;;;37.18;46.49;100680.13;6183893;23;20436;-74
2022/04/14 04:32:51;;;;;;;24.87;11.60;;;;;;;37.02;46.73;100680.50;6157580;23;20384;-74
2022/04/14 04:35:17;;;;;;;19.40;11.83;;;;;;;36.96;46.92;100679.00;6157608;23;20414;-76
2022/04/14 04:37:43;;;;;;;19.70;12.20;;;;;;;36.88;47.44;100673.50;6157522;23;20891;-74
2022/04/14 04:40:10;;;;;;;23.60;12.00;;;;;;;36.92;46.99;100678.00;6157517;23;20376;-74
2022/04/14 04:42:36;;;;;;;25.93;13.37;;;;;;;36.83;47.26;100679.78;6157209;23;20865;-76
2022/04/14 04:45:02;;;;;;;31.47;13.40;;;;;;;36.80;47.39;100685.81;6157865;23;20380;-74
2022/04/14 04:47:28;;;;;;;25.77;13.50;;;;;;;36.77;47.35;100683.69;6157241;23;20924;-75
2022/04/14 04:49:54;;;;;;;29.93;14.40;;;;;;;36.84;47.25;100684.09;6157387;23;20380;-74
2022/04/14 04:52:20;;;;;;;23.57;11.50;;;;;;;36.73;47.39;100678.09;6157409;23;20499;-76
2022/04/14 04:54:46;;;;;;;22.53;10.50;;;;;;;36.78;47.49;100674.50;6157310;23;20467;-74
2022/04/14 04:57:12;;;;;;;22.40;11.30;;;;;;;36.85;47.37;100674.88;6157605;23;20408;-75
2022/04/14 04:59:38;;;;;;;24.10;9.60;;;;;;;36.95;46.85;100688.19;6159172;23;20380;-73
2022/04/14 05:02:05;;;;;;;22.53;13.80;;;;;;;36.89;46.97;100689.41;6134705;23;20507;-74
2022/04/14 05:04:31;;;;;;;19.93;11.20;;;;;;;36.93;46.75;100676.91;6159395;23;20376;-73
2022/04/14 05:06:57;;;;;;;20.37;12.20;;;;;;;36.95;46.67;100680.09;6185532;23;20859;-74
2022/04/14 05:09:24;;;;;;;24.57;12.50;;;;;;;36.81;46.89;100680.09;6159156;23;20506;-76
2022/04/14 05:11:50;;;;;;;20.90;15.23;;;;;;;36.83;46.89;100688.72;6159546;23;20399;-76
2022/04/14 05:14:17;;;;;;;22.40;10.73;;;;;;;36.89;46.80;100685.91;6159308;23;20384;-74
2022/04/14 05:16:43;;;;;;;22.93;13.03;;;;;;;36.93;46.91;100692.31;6134565;23;20418;-76
2022/04/14 05:19:09;;;;;;;26.30;13.90;;;;;;;37.02;46.68;100694.00;6159263;23;20380;-76
2022/04/14 05:21:35;;;;;;;21.73;13.93;;;;;;;37.02;47.18;100695.94;6159357;23;20395;-73
2022/04/14 05:24:01;;;;;;;25.23;14.17;;;;;;;37.05;47.15;100695.31;6159211;23;20435;-74
2022/04/14 05:26:27;;;;;;;37.50;18.87;;;;;;;37.11;46.89;100700.28;6159155;23;20415;-74
2022/04/14 05:28:53;;;;;;;39.80;25.40;;;;;;;37.20;46.61;100699.56;6184859;23;20497;-74
2022/04/14 05:31:21;;;;;;;42.50;32.67;;;;;;;37.29;46.22;100706.66;6159012;23;20396;-73
2022/04/14 05:33:48;;;;;;;67.10;42.60;;;;;;;37.35;46.16;100707.38;6159122;23;20408;-74
2022/04/14 05:36:14;;;;;;;44.50;28.97;;;;;;;37.37;46.35;100710.56;6158901;23;20404;-74
2022/04/14 05:38:40;;;;;;;36.77;23.67;;;;;;;37.30;45.94;100729.09;6158940;23;20408;-74
2022/04/14 05:41:08;;;;;;;32.20;19.33;;;;;;;37.31;46.48;100731.50;6185635;23;20415;-74
2022/04/14 05:43:34;;;;;;;34.63;19.87;;;;;;;37.24;46.35;100736.53;6185275;23;20361;-75
2022/04/14 05:46:01;;;;;;;36.50;19.30;;;;;;;37.09;46.48;100748.47;6158795;23;20435;-74
2022/04/14 05:48:28;;;;;;;31.40;19.57;;;;;;;37.07;46.92;100753.38;6184966;23;20427;-72
2022/04/14 05:50:54;;;;;;;32.73;18.47;;;;;;;37.08;46.59;100760.41;6158881;23;20411;-73
2022/04/14 05:53:25;;;;;;;29.90;20.07;;;;;;;37.00;47.00;100763.00;6158841;23;20380;-75
2022/04/14 05:55:51;;;;;;;37.90;24.27;;;;;;;36.98;47.18;100770.63;6158956;23;20837;-75
2022/04/14 05:58:18;;;;;;;38.30;24.97;;;;;;;37.00;46.81;100774.63;6185465;23;20439;-77
2022/04/14 06:00:44;;;;;;;35.40;22.60;;;;;;;36.80;47.27;100775.00;6158931;23;20425;-82
2022/04/14 06:03:11;;;;;;;37.10;23.80;;;;;;;36.84;47.40;100776.00;6185113;23;20853;-74
2022/04/14 06:05:37;;;;;;;38.50;24.87;;;;;;;36.70;47.47;100789.50;6158908;23;20377;-77
2022/04/14 06:08:06;;;;;;;33.67;22.20;;;;;;;36.67;47.58;100790.13;6158206;23;20420;-72
2022/04/14 06:10:34;;;;;;;39.73;19.97;;;;;;;36.56;47.94;100791.41;6157674;23;20857;-74
2022/04/14 06:13:00;;;;;;;27.73;17.77;;;;;;;36.41;48.14;100792.47;6158481;23;20384;-77
2022/04/14 06:15:29;;;;;;;28.63;20.73;;;;;;;36.67;47.56;100798.22;6158542;23;20736;-77
2022/04/14 06:17:55;;;;;;;37.13;22.77;;;;;;;36.81;47.43;100814.44;6157907;23;20950;-74
2022/04/14 06:20:21;;;;;;;37.80;21.50;;;;;;;36.91;47.04;100821.59;6158481;23;20373;-73
2022/04/14 06:22:47;;;;;;;32.43;20.00;;;;;;;37.01;46.75;100815.97;6183883;23;21069;-75
2022/04/14 06:25:16;;;;;;;28.90;23.30;;;;;;;37.01;46.45;100819.47;6157200;23;20438;-74
2022/04/14 06:27:46;;;;;;;34.97;21.70;;;;;;;36.99;46.76;100816.28;6158465;23;20384;-76
2022/04/14 06:30:16;;;;;;;35.77;24.40;;;;;;;37.03;46.91;100828.09;6184939;23;20363;-76
2022/04/14 06:32:42;;;;;;;39.47;23.10;;;;;;;36.92;47.04;100826.69;6157856;23;20392;-77
2022/04/14 06:35:15;;;;;;;35.13;23.03;;;;;;;36.92;47.45;100831.31;6158586;23;20376;-77
2022/04/14 06:37:41;;;;;;;33.53;17.97;;;;;;;37.19;46.51;100828.59;6158094;23;20463;-79
2022/04/14 06:40:16;;;;;;;26.90;16.60;;;;;;;37.39;46.26;100832.84;6183570;23;20969;-75
2022/04/14 06:42:42;;;;;;;31.10;20.97;;;;;;;37.53;45.32;100841.72;6157028;23;20399;-73
2022/04/14 06:45:09;;;;;;;37.77;23.17;;;;;;;37.48;45.91;100843.72;6157720;23;20873;-82
2022/04/14 06:47:35;;;;;;;34.97;20.40;;;;;;;37.58;45.44;100855.13;6157730;23;20928;-82
2022/04/14 06:50:01;;;;;;;34.27;21.60;;;;;;;37.42;46.15;100855.75;6158087;23;20396;-73
2022/04/14 06:52:27;;;;;;;42.53;22.60;;;;;;;37.60;45.16;100862.94;6158098;23;20372;-74
2022/04/14 06:54:53;;;;;;;47.10;23.67;;;;;;;37.30;46.12;100867.84;6157899;23;20924;-73
2022/04/14 06:57:20;;;;;;;30.67;20.13;;;;;;;37.21;46.38;100866.97;6158185;23;20472;-73
2022/04/14 06:59:46;;;;;;;29.97;19.60;;;;;;;37.32;46.38;100875.66;6158182;23;20391;-77
2022/04/14 07:02:13;;;;;;;29.13;21.03;;;;;;;37.54;45.77;100873.09;6157791;23;20444;-80
2022/04/14 07:04:39;;;;;;;37.93;19.23;;;;;;;37.01;46.99;100875.47;6158045;23;20380;-78
2022/04/14 07:07:05;;;;;;;32.27;20.33;;;;;;;36.87;47.23;100875.47;6157998;23;20418;-82
2022/04/14 07:09:34;;;;;;;33.70;17.47;;;;;;;36.94;47.63;100883.97;6157833;23;20778;-77
2022/04/14 07:12:01;;;;;;;37.53;24.17;;;;;;;37.25;46.38;100886.91;6158183;23;20447;-72
2022/04/14 07:14:28;;;;;;;42.43;21.43;;;;;;;37.26;46.85;100885.00;6158015;23;20395;-81
2022/04/14 07:16:55;;;;;;;39.70;21.93;;;;;;;37.51;45.97;100892.66;6157810;23;20479;-73
2022/04/14 07:19:21;;;;;;;26.53;20.37;;;;;;;37.18;46.50;100885.69;6132409;23;20407;-73
2022/04/14 07:21:47;;;;;;;34.00;19.83;;;;;;;37.20;47.26;100886.19;6157709;23;20861;-73
2022/04/14 07:24:13;;;;;;;28.00;19.27;;;;;;;37.37;46.13;100895.34;6183623;23;20379;-73
2022/04/14 07:26:39;;;;;;;27.47;18.20;;;;;;;37.38;46.62;100904.25;6156820;23;20408;-72
2022/04/14 07:29:05;;;;;;;33.30;18.47;;;;;;;37.49;45.94;100905.66;6156606;23;21016;-73
2022/04/14 07:31:32;;;;;;;22.50;15.53;;;;;;;37.68;45.58;100908.25;6182947;23;20404;-73
2022/04/14 07:34:01;;;;;;;23.83;16.57;;;;;;;37.79;45.84;100911.53;6183381;23;20777;-84
2022/04/14 07:36:28;;;;;;;32.07;15.60;;;;;;;37.85;45.44;100915.75;6157369;23;20972;-78
2022/04/14 07:38:54;;;;;;;25.47;15.40;;;;;;;37.87;45.07;100905.41;6157662;23;20443;-81
2022/04/14 07:41:20;;;;;;;21.93;15.87;;;;;;;38.01;45.00;100908.13;6156794;23;20398;-78
2022/04/14 07:43:46;;;;;;;31.70;12.70;;;;;;;38.01;45.08;100911.63;6156546;23;20454;-77
2022/04/14 07:46:12;;;;;;;22.77;11.80;;;;;;;38.07;44.63;100912.31;6156364;23;20416;-76
2022/04/14 07:48:38;;;;;;;25.13;11.53;;;;;;;37.85;45.30;100910.34;6132175;23;20451;-79
2022/04/14 07:51:04;;;;;;;16.77;10.70;;;;;;;37.57;45.72;100913.09;6157776;23;20420;-72
2022/04/14 07:53:31;;;;;;;18.57;12.40;;;;;;;37.21;46.71;100915.66;6157963;23;20452;-72
2022/04/14 07:55:57;;;;;;;22.60;13.57;;;;;;;37.50;45.97;100917.28;6157324;23;20385;-74
2022/04/14 07:58:23;;;;;;;14.83;10.93;;;;;;;37.61;45.97;100916.78;6157856;23;20384;-75
2022/04/14 08:00:52;;;;;;;19.93;13.17;;;;;;;37.42;46.18;100909.88;6157965;23;20360;-74
2022/04/14 08:03:19;;;;;;;16.53;11.30;;;;;;;37.71;45.76;100915.75;6157861;23;20857;-74
2022/04/14 08:05:46;;;;;;;17.10;8.03;;;;;;;37.91;45.50;100919.97;6133300;23;20477;-72
2022/04/14 08:08:14;;;;;;;25.70;10.27;;;;;;;38.07;44.80;100932.06;6157633;23;20428;-71
2022/04/14 08:10:42;;;;;;;12.60;8.90;;;;;;;38.03;44.50;100938.41;6157718;23;20805;-71
2022/04/14 08:13:08;;;;;;;20.60;10.80;;;;;;;38.21;44.19;100939.34;6156458;23;20750;-78
2022/04/14 08:15:36;;;;;;;18.67;10.63;;;;;;;38.24;44.38;100936.81;6156629;23;20389;-77
2022/04/14 08:18:06;;;;;;;12.33;7.17;;;;;;;38.24;44.09;100944.13;6107301;23;20991;-78
2022/04/14 08:20:34;;;;;;;15.10;8.40;;;;;;;38.15;44.74;100946.78;6156284;23;20381;-72
2022/04/14 08:23:01;;;;;;;16.67;8.03;;;;;;;38.35;43.69;100951.75;6157160;23;20809;-75
2022/04/14 08:25:32;;;;;;;12.53;7.53;;;;;;;38.37;43.72;100952.28;6132985;23;20919;-73
2022/04/14 08:28:03;;;;;;;13.60;6.93;;;;;;;38.31;44.33;100956.22;6183926;23;20419;-76
2022/04/14 08:30:31;;;;;;;11.73;7.50;;;;;;;38.41;44.19;100950.53;6132705;23;20412;-74
2022/04/14 08:33:06;;;;;;;14.00;7.07;;;;;;;38.55;43.62;100960.50;6157305;23;20384;-74
2022/04/14 08:35:33;;;;;;;15.47;8.33;;;;;;;38.41;43.80;100949.72;6183889;23;20825;-74
2022/04/14 08:38:04;;;;;;;10.40;6.40;;;;;;;38.48;43.51;100960.94;6133044;23;20726;-76
2022/04/14 08:40:37;;;;;;;11.93;6.53;;;;;;;38.51;43.70;100959.53;6132394;23;20739;-77
2022/04/14 08:43:05;;;;;;;15.03;9.20;;;;;;;38.53;44.07;100965.44;6157843;23;20368;-74
2022/04/14 08:45:59;;;;;;;12.80;7.97;;;;;;;38.59;43.72;100975.84;6133142;23;20451;-72
2022/04/14 08:48:27;;;;;;;15.00;8.00;;;;;;;38.60;43.52;100977.44;6127695;23;20452;-73
2022/04/14 08:50:54;;;;;;;13.80;8.03;;;;;;;38.63;43.68;100968.72;6183860;23;20364;-73
2022/04/14 08:53:24;;;;;;;16.60;6.60;;;;;;;38.72;43.30;100973.41;6157287;23;20395;-75
2022/04/14 08:55:51;;;;;;;18.47;9.63;;;;;;;38.68;43.48;100976.72;6157470;23;20412;-71
2022/04/14 08:58:26;;;;;;;14.90;7.90;;;;;;;38.74;43.33;100979.34;6157765;23;20364;-72
2022/04/14 09:00:56;;;;;;;19.00;9.40;;;;;;;38.75;43.33;100983.66;6157300;23;20852;-72
2022/04/14 09:03:27;;;;;;;15.27;8.80;;;;;;;38.65;43.65;100977.34;6157542;23;20396;-77
2022/04/14 09:05:55;;;;;;;13.03;8.37;;;;;;;38.74;43.70;100979.34;6157649;23;20862;-74
2022/04/14 09:08:24;;;;;;;14.30;8.73;;;;;;;38.80;43.49;100970.78;6157179;23;20420;-76
2022/04/14 09:10:51;;;;;;;23.83;9.30;;;;;;;38.85;43.40;100981.47;6157510;23;20380;-76
2022/04/14 09:13:20;;;;;;;15.73;8.57;;;;;;;38.93;42.94;100986.19;6157265;23;20384;-75
2022/04/14 09:15:47;;;;;;;14.50;7.77;;;;;;;38.92;43.28;100994.63;6157329;23;20464;-76
2022/04/14 09:18:14;;;;;;;19.37;8.97;;;;;;;38.95;42.99;101012.97;6157281;23;20400;-74
2022/04/14 09:20:42;;;;;;;21.40;9.53;;;;;;;38.94;43.24;101011.38;6157206;23;20733;-74
2022/04/14 09:23:21;;;;;;;12.37;7.10;;;;;;;38.98;43.17;101004.22;6157488;23;20387;-74
2022/04/14 09:25:49;;;;;;;23.67;7.73;;;;;;;39.05;42.83;101015.44;6157467;23;20407;-74
2022/04/14 09:28:18;;;;;;;12.90;7.97;;;;;;;39.20;42.62;101017.78;6157249;23;20503;-76
2022/04/14 09:31:04;;;;;;;14.87;6.13;;;;;;;39.22;42.62;101018.25;6132602;23;20395;-76
2022/04/14 09:33:32;;;;;;;15.83;6.73;;;;;;;39.18;42.56;101028.16;6183747;23;20361;-73
2022/04/14 09:36:13;;;;;;;16.70;5.43;;;;;;;39.12;42.92;101031.28;6183750;23;20376;-76
2022/04/14 09:38:56;;;;;;;13.03;7.27;;;;;;;39.13;42.52;101027.44;6183519;23;20467;-75
2022/04/14 09:41:41;;;;;;;13.77;6.40;;;;;;;39.17;42.18;101026.56;6183844;23;20371;-77
2022/04/14 09:44:12;;;;;;;16.20;9.83;;;;;;;39.15;42.44;101028.72;6157287;23;20448;-77
2022/04/14 09:46:43;;;;;;;10.73;6.00;;;;;;;39.17;42.66;101034.69;6158835;23;20398;-75
2022/04/14 09:49:18;;;;;;;13.63;7.13;;;;;;;39.25;42.37;101041.28;6110475;23;20494;-76
2022/04/14 09:51:47;;;;;;;16.43;6.70;;;;;;;39.28;42.19;101034.41;6185358;23;20406;-75
2022/04/14 09:54:15;;;;;;;10.63;6.57;;;;;;;39.28;42.14;101031.69;6110920;23;20423;-76
2022/04/14 09:56:56;;;;;;;22.23;7.80;;;;;;;39.23;42.18;101030.75;6185295;23;20361;-76
2022/04/14 09:59:29;;;;;;;11.63;6.20;;;;;;;39.26;42.17;101025.78;6159012;23;20372;-75
2022/04/14 10:02:09;;;;;;;15.93;10.33;;;;;;;39.28;42.10;101023.56;6158847;23;20376;-72
2022/04/14 10:04:38;;;;;;;14.60;7.40;;;;;;;39.08;42.36;101014.81;6185162;23;20446;-75
2022/04/14 10:07:18;;;;;;;10.77;7.10;;;;;;;38.98;42.74;101015.09;6158811;23;20474;-75
2022/04/14 10:09:45;;;;;;;11.30;8.47;;;;;;;39.05;42.78;101011.94;6185222;23;20911;-77
2022/04/14 10:12:23;;;;;;;16.27;8.80;;;;;;;39.04;42.86;101016.56;6185175;23;20357;-77
2022/04/14 10:15:05;;;;;;;12.97;8.00;;;;;;;39.00;43.10;101039.19;6158621;23;20388;-75
2022/04/14 10:17:38;;;;;;;15.70;7.20;;;;;;;39.02;43.00;101054.03;6158935;23;20403;-77
2022/04/14 10:20:10;;;;;;;42.43;19.40;;;;;;;39.05;43.88;101066.19;6158759;23;20372;-72
2022/04/14 10:22:38;;;;;;;27.77;13.63;;;;;;;39.14;45.20;101067.03;6185088;23;20371;-73
2022/04/14 10:25:05;;;;;;;23.10;8.03;;;;;;;38.17;45.99;101072.69;6158822;23;20699;-72
2022/04/14 10:27:33;;;;;;;12.20;5.67;;;;;;;37.11;44.03;101083.53;6158656;23;20883;-72
2022/04/14 10:30:00;;;;;;;11.80;6.27;;;;;;;35.14;45.75;101112.44;6158759;23;20456;-71
2022/04/14 10:32:26;;;;;;;10.97;4.60;;;;;;;35.37;45.09;101103.63;6158636;23;20380;-71
2022/04/14 10:34:54;;;;;;;11.27;4.33;;;;;;;35.87;44.26;101079.97;6185014;23;20357;-71
2022/04/14 10:37:28;;;;;;;41.90;7.50;;;;;;;35.86;44.50;101061.38;6158672;23;20379;-73
2022/04/14 10:39:56;;;;;;;8.00;3.77;;;;;;;35.59;42.49;101040.31;6158543;23;20380;-73
2022/04/14 10:42:27;;;;;;;8.37;5.00;;;;;;;35.82;43.62;101020.63;6158603;23;20372;-73
2022/04/14 10:44:54;;;;;;;17.17;6.47;;;;;;;36.50;43.84;101009.53;6158522;23;20864;-72
2022/04/14 10:47:51;;;;;;;9.43;5.43;;;;;;;36.98;44.49;101008.56;6158343;23;20507;-74
2022/04/14 10:50:31;;;;;;;10.40;5.43;;;;;;;37.28;44.14;101026.97;6158425;23;20484;-76
2022/04/14 10:53:14;;;;;;;10.63;5.17;;;;;;;37.37;43.31;101040.66;6184811;23;20391;-77
2022/04/14 10:55:41;;;;;;;12.73;6.40;;;;;;;37.37;41.97;101044.16;6158286;23;20439;-72
2022/04/14 10:58:27;;;;;;;11.20;5.10;;;;;;;37.44;42.00;101046.47;6157865;23;20389;-74
2022/04/14 11:00:54;;;;;;;8.80;4.87;;;;;;;37.51;41.72;101041.50;6156973;23;20395;-74
2022/04/14 11:03:40;;;;;;;13.10;6.30;;;;;;;37.65;42.82;101033.38;6183130;23;20833;-73
2022/04/14 11:06:06;;;;;;;8.60;4.90;;;;;;;37.79;42.18;101022.53;6156728;23;20388;-73
2022/04/14 11:08:32;;;;;;;10.97;6.40;;;;;;;37.80;42.38;101016.84;6157020;23;20439;-76
2022/04/14 11:11:04;;;;;;;13.13;5.50;;;;;;;37.97;43.13;101010.03;6183264;23;20781;-75
2022/04/14 11:13:59;;;;;;;12.50;8.43;;;;;;;38.15;43.84;100990.94;6156534;23;20739;-75
2022/04/14 11:16:47;;;;;;;15.73;8.40;;;;;;;38.06;43.67;100962.97;6126995;23;20446;-75
2022/04/14 11:19:24;;;;;;;18.13;7.83;;;;;;;38.07;43.96;100944.81;6157468;23;20435;-75